createdAt,value
2019-05-26T00:00:09.082Z,7.79
2019-05-26T00:02:37.979Z,7.78
2019-05-26T00:05:07.099Z,7.77
2019-05-26T00:07:36.135Z,7.76
2019-05-26T00:10:05.119Z,7.75
2019-05-26T00:12:33.845Z,7.77
2019-05-26T00:15:02.489Z,7.77
2019-05-26T00:17:31.426Z,7.78
2019-05-26T00:20:00.331Z,7.81
2019-05-26T00:22:29.078Z,7.81
2019-05-26T00:24:57.754Z,7.82
2019-05-26T00:27:26.424Z,7.84
2019-05-26T00:29:55.098Z,7.82
2019-05-26T00:32:23.886Z,7.81
2019-05-26T00:34:52.593Z,7.86
2019-05-26T00:37:21.265Z,7.87
2019-05-26T00:39:49.925Z,7.85
2019-05-26T00:42:19.017Z,7.83
2019-05-26T00:44:47.734Z,7.82
2019-05-26T00:47:16.409Z,7.85
2019-05-26T00:49:45.130Z,7.90
2019-05-26T00:52:13.825Z,7.94
2019-05-26T00:54:42.715Z,7.98
2019-05-26T00:57:11.712Z,7.97
2019-05-26T00:59:40.925Z,7.96
2019-05-26T01:02:09.925Z,7.94
2019-05-26T01:04:38.805Z,7.93
2019-05-26T01:07:07.787Z,7.93
2019-05-26T01:09:36.444Z,7.92
2019-05-26T01:12:05.277Z,7.91
2019-05-26T01:14:33.977Z,7.93
2019-05-26T01:17:02.707Z,7.92
2019-05-26T01:19:31.702Z,7.97
2019-05-26T01:22:00.349Z,8.00
2019-05-26T01:24:29.015Z,7.99
2019-05-26T01:26:57.682Z,7.97
2019-05-26T01:29:26.455Z,7.90
2019-05-26T01:31:55.178Z,7.82
2019-05-26T01:34:23.854Z,7.80
2019-05-26T01:36:52.567Z,7.81
2019-05-26T01:39:21.303Z,7.83
2019-05-26T01:41:49.954Z,7.83
2019-05-26T01:44:18.630Z,7.83
2019-05-26T01:46:47.564Z,7.84
2019-05-26T01:49:16.523Z,7.86
2019-05-26T01:51:45.269Z,7.88
2019-05-26T01:54:13.931Z,7.95
2019-05-26T01:56:42.587Z,8.03
2019-05-26T01:59:11.545Z,8.10
2019-05-26T02:01:40.195Z,8.13
2019-05-26T02:04:08.927Z,8.18
2019-05-26T02:06:37.653Z,8.16
2019-05-26T02:09:07.593Z,8.19
2019-05-26T02:11:36.237Z,8.28
2019-05-26T02:14:05.330Z,8.40
2019-05-26T02:16:34.322Z,8.48
2019-05-26T02:19:03.065Z,8.53
2019-05-26T02:21:32.009Z,8.53
2019-05-26T02:24:00.665Z,8.49
2019-05-26T02:26:29.323Z,8.44
2019-05-26T02:28:58.050Z,8.43
2019-05-26T02:31:26.830Z,8.43
2019-05-26T02:33:56.805Z,8.50
2019-05-26T02:36:25.579Z,8.61
2019-05-26T02:39:02.070Z,8.71
2019-05-26T02:41:24.979Z,8.77
2019-05-26T02:43:53.604Z,8.80
2019-05-26T02:46:22.337Z,8.81
2019-05-26T02:48:51.324Z,8.80
2019-05-26T02:51:20.038Z,8.80
2019-05-26T02:53:48.689Z,8.88
2019-05-26T02:56:17.736Z,8.95
2019-05-26T02:58:46.456Z,9.04
2019-05-26T03:01:18.277Z,9.12
2019-05-26T03:03:46.902Z,9.13
2019-05-26T03:06:16.075Z,9.10
2019-05-26T03:08:45.418Z,9.09
2019-05-26T03:11:14.175Z,9.11
2019-05-26T03:13:43.303Z,9.16
2019-05-26T03:16:19.769Z,9.16
2019-05-26T03:18:48.480Z,9.17
2019-05-26T03:21:19.075Z,9.17
2019-05-26T03:23:49.542Z,9.15
2019-05-26T03:26:19.901Z,9.15
2019-05-26T03:28:48.877Z,9.13
2019-05-26T03:31:17.567Z,9.15
2019-05-26T03:33:46.207Z,9.19
2019-05-26T03:36:14.854Z,9.25
2019-05-26T03:38:43.516Z,9.34
2019-05-26T03:41:12.246Z,9.42
2019-05-26T03:43:40.907Z,9.55
2019-05-26T03:46:19.915Z,9.69
2019-05-26T03:48:49.051Z,9.79
2019-05-26T03:51:17.774Z,9.82
2019-05-26T03:53:46.498Z,9.88
2019-05-26T03:56:16.670Z,9.96
2019-05-26T03:58:45.357Z,10.07
2019-05-26T04:01:14.107Z,10.12
2019-05-26T04:03:42.845Z,10.20
2019-05-26T04:06:11.516Z,10.24
2019-05-26T04:08:41.692Z,10.27
2019-05-26T04:11:10.366Z,10.35
2019-05-26T04:13:39.042Z,10.40
2019-05-26T04:16:07.682Z,10.45
2019-05-26T04:18:36.372Z,10.48
2019-05-26T04:21:05.358Z,10.52
2019-05-26T04:23:34.011Z,10.57
2019-05-26T04:26:02.746Z,10.63
2019-05-26T04:28:33.525Z,10.75
2019-05-26T04:31:02.424Z,10.80
2019-05-26T04:33:31.131Z,10.94
2019-05-26T04:35:59.787Z,11.05
2019-05-26T04:38:28.420Z,11.15
2019-05-26T04:40:57.076Z,11.23
2019-05-26T04:43:25.700Z,11.33
2019-05-26T04:45:54.414Z,11.42
2019-05-26T04:48:23.055Z,11.58
2019-05-26T04:50:51.941Z,11.73
2019-05-26T04:53:20.604Z,11.88
2019-05-26T04:55:49.289Z,11.99
2019-05-26T04:58:17.976Z,12.15
2019-05-26T05:00:46.609Z,12.30
2019-05-26T05:03:15.273Z,12.42
2019-05-26T05:05:43.965Z,12.55
2019-05-26T05:08:12.624Z,12.62
2019-05-26T05:10:42.895Z,12.73
2019-05-26T05:13:11.859Z,12.87
2019-05-26T05:15:40.514Z,13.07
2019-05-26T05:18:09.205Z,13.18
2019-05-26T05:20:37.871Z,13.38
2019-05-26T05:23:06.850Z,13.47
2019-05-26T05:25:35.510Z,13.56
2019-05-26T05:28:04.241Z,13.67
2019-05-26T05:30:32.995Z,13.80
2019-05-26T05:33:01.612Z,13.83
2019-05-26T05:35:30.578Z,13.92
2019-05-26T05:37:59.217Z,13.98
2019-05-26T05:40:28.130Z,14.07
2019-05-26T05:42:57.016Z,14.15
2019-05-26T05:45:25.908Z,14.22
2019-05-26T05:47:54.554Z,14.32
2019-05-26T05:50:23.229Z,14.34
2019-05-26T05:52:53.218Z,14.35
2019-05-26T05:55:21.985Z,14.49
2019-05-26T05:57:50.599Z,14.58
2019-05-26T06:00:19.342Z,14.70
2019-05-26T06:02:47.982Z,14.88
2019-05-26T06:05:16.796Z,15.07
2019-05-26T06:07:45.434Z,15.20
2019-05-26T06:10:14.134Z,15.27
2019-05-26T06:12:42.843Z,15.41
2019-05-26T06:15:12.957Z,15.52
2019-05-26T06:17:42.679Z,15.56
2019-05-26T06:20:13.185Z,15.63
2019-05-26T06:22:41.904Z,15.63
2019-05-26T06:25:10.828Z,15.60
2019-05-26T06:27:40.871Z,15.72
2019-05-26T06:30:11.621Z,15.85
2019-05-26T06:32:42.073Z,15.88
2019-05-26T06:35:12.009Z,16.08
2019-05-26T06:37:41.989Z,16.18
2019-05-26T06:40:11.002Z,16.22
2019-05-26T06:42:39.734Z,16.27
2019-05-26T06:45:08.808Z,16.36
2019-05-26T06:47:37.764Z,16.36
2019-05-26T06:50:06.532Z,16.44
2019-05-26T06:52:35.273Z,16.37
2019-05-26T06:55:04.031Z,16.29
2019-05-26T06:57:32.696Z,16.16
2019-05-26T07:00:01.662Z,16.09
2019-05-26T07:02:30.364Z,15.96
2019-05-26T07:04:59.270Z,15.93
2019-05-26T07:07:28.134Z,15.80
2019-05-26T07:09:57.066Z,15.68
2019-05-26T07:12:25.772Z,15.53
2019-05-26T07:14:54.428Z,15.47
2019-05-26T07:17:23.370Z,15.42
2019-05-26T07:19:52.661Z,15.40
2019-05-26T07:22:21.332Z,15.67
2019-05-26T07:24:50.056Z,16.32
2019-05-26T07:27:18.700Z,17.07
2019-05-26T07:29:47.350Z,17.57
2019-05-26T07:32:16.094Z,17.94
2019-05-26T07:34:44.829Z,18.57
2019-05-26T07:37:13.536Z,18.97
2019-05-26T07:39:42.174Z,19.28
2019-05-26T07:42:11.346Z,19.35
2019-05-26T07:44:41.192Z,19.32
2019-05-26T07:47:09.894Z,19.24
2019-05-26T07:49:38.851Z,19.25
2019-05-26T07:52:07.585Z,19.20
2019-05-26T07:54:36.352Z,18.91
2019-05-26T07:57:05.037Z,18.84
2019-05-26T07:59:33.752Z,18.75
2019-05-26T08:02:02.391Z,18.76
2019-05-26T08:04:31.087Z,18.73
2019-05-26T08:06:59.823Z,18.81
2019-05-26T08:09:28.565Z,19.00
2019-05-26T08:11:57.696Z,19.14
2019-05-26T08:14:26.644Z,19.29
2019-05-26T08:16:55.389Z,19.47
2019-05-26T08:19:24.130Z,19.57
2019-05-26T08:21:54.684Z,19.93
2019-05-26T08:24:23.615Z,20.36
2019-05-26T08:26:52.362Z,20.62
2019-05-26T08:29:21.305Z,20.93
2019-05-26T08:31:49.950Z,21.00
2019-05-26T08:34:18.707Z,21.22
2019-05-26T08:36:47.405Z,21.27
2019-05-26T08:39:16.053Z,21.37
2019-05-26T08:41:45.883Z,21.28
2019-05-26T08:44:14.622Z,21.09
2019-05-26T08:46:43.281Z,21.13
2019-05-26T08:49:12.192Z,20.94
2019-05-26T08:51:40.825Z,20.82
2019-05-26T08:54:12.775Z,20.67
2019-05-26T08:56:41.546Z,20.92
2019-05-26T08:59:10.463Z,21.29
2019-05-26T09:01:39.114Z,21.74
2019-05-26T09:04:07.770Z,22.05
2019-05-26T09:06:36.469Z,22.07
2019-05-26T09:09:07.320Z,22.16
2019-05-26T09:11:36.117Z,22.31
2019-05-26T09:14:05.083Z,22.40
2019-05-26T09:16:33.738Z,22.54
2019-05-26T09:19:02.519Z,22.64
2019-05-26T09:21:31.265Z,22.92
2019-05-26T09:24:00.317Z,23.18
2019-05-26T09:26:29.229Z,23.40
2019-05-26T09:28:57.952Z,23.48
2019-05-26T09:31:26.648Z,23.51
2019-05-26T09:33:55.527Z,23.49
2019-05-26T09:36:24.302Z,23.54
2019-05-26T09:38:52.973Z,23.68
2019-05-26T09:41:21.685Z,23.70
2019-05-26T09:43:50.387Z,24.11
2019-05-26T09:46:19.030Z,24.27
2019-05-26T09:48:47.966Z,24.40
2019-05-26T09:51:16.665Z,24.28
2019-05-26T09:54:00.539Z,24.07
2019-05-26T09:56:15.957Z,24.06
2019-05-26T09:58:44.627Z,23.81
2019-05-26T10:01:13.300Z,23.84
2019-05-26T10:03:42.263Z,24.03
2019-05-26T10:06:10.934Z,24.37
2019-05-26T10:08:39.900Z,24.75
2019-05-26T10:11:08.540Z,25.04
2019-05-26T10:13:37.440Z,24.96
2019-05-26T10:16:06.209Z,24.85
2019-05-26T10:18:35.092Z,24.63
2019-05-26T10:21:04.190Z,24.62
2019-05-26T10:23:32.888Z,24.64
2019-05-26T10:26:01.640Z,24.70
2019-05-26T10:28:30.537Z,24.67
2019-05-26T10:30:59.444Z,24.78
2019-05-26T10:33:28.483Z,24.83
2019-05-26T10:35:57.284Z,24.82
2019-05-26T10:38:26.196Z,24.78
2019-05-26T10:40:55.141Z,24.85
2019-05-26T10:43:24.033Z,24.96
2019-05-26T10:45:52.688Z,25.31
2019-05-26T10:48:21.436Z,25.50
2019-05-26T10:50:50.113Z,25.68
2019-05-26T10:53:18.790Z,25.59
2019-05-26T10:55:47.468Z,25.31
2019-05-26T10:58:16.555Z,25.42
2019-05-26T11:00:45.297Z,25.57
2019-05-26T11:03:13.964Z,25.83
2019-05-26T11:05:42.768Z,25.91
2019-05-26T11:08:11.474Z,25.29
2019-05-26T11:10:40.458Z,25.16
2019-05-26T11:13:10.672Z,24.83
2019-05-26T11:15:39.652Z,24.55
2019-05-26T11:18:08.381Z,24.59
2019-05-26T11:20:37.061Z,24.71
2019-05-26T11:23:05.782Z,24.98
2019-05-26T11:25:34.532Z,25.30
2019-05-26T11:28:03.182Z,25.37
2019-05-26T11:30:33.234Z,25.37
2019-05-26T11:33:01.948Z,25.48
2019-05-26T11:35:30.892Z,25.84
2019-05-26T11:37:59.780Z,25.69
2019-05-26T11:40:28.647Z,25.84
2019-05-26T11:42:57.304Z,26.23
2019-05-26T11:45:25.976Z,25.62
2019-05-26T11:47:55.106Z,24.89
2019-05-26T11:50:24.125Z,24.78
2019-05-26T11:52:53.067Z,24.73
2019-05-26T11:55:21.806Z,25.03
2019-05-26T11:57:50.477Z,25.23
2019-05-26T12:00:20.501Z,25.36
2019-05-26T12:02:49.213Z,25.71
2019-05-26T12:05:18.196Z,26.49
2019-05-26T12:07:46.855Z,26.95
2019-05-26T12:10:15.955Z,26.46
2019-05-26T12:12:44.596Z,26.66
2019-05-26T12:15:14.902Z,26.93
2019-05-26T12:17:43.536Z,26.76
2019-05-26T12:20:13.953Z,26.80
2019-05-26T12:22:42.712Z,26.72
2019-05-26T12:25:11.523Z,27.48
2019-05-26T12:27:41.410Z,28.23
2019-05-26T12:30:10.463Z,28.03
2019-05-26T12:32:39.440Z,27.19
2019-05-26T12:35:09.062Z,26.23
2019-05-26T12:37:39.274Z,25.81
2019-05-26T12:40:09.410Z,25.33
2019-05-26T12:42:38.422Z,25.30
2019-05-26T12:45:07.590Z,25.90
2019-05-26T12:47:36.593Z,25.67
2019-05-26T12:50:05.890Z,25.42
2019-05-26T12:52:34.609Z,25.01
2019-05-26T12:55:03.501Z,25.31
2019-05-26T12:57:32.140Z,25.20
2019-05-26T13:00:01.104Z,25.72
2019-05-26T13:02:30.075Z,26.75
2019-05-26T13:04:58.842Z,27.48
2019-05-26T13:07:27.496Z,26.88
2019-05-26T13:09:56.183Z,27.47
2019-05-26T13:12:28.117Z,28.06
2019-05-26T13:15:05.430Z,27.82
2019-05-26T13:17:27.166Z,27.89
2019-05-26T13:19:55.821Z,26.83
2019-05-26T13:22:24.790Z,26.90
2019-05-26T13:24:53.441Z,27.03
2019-05-26T13:27:22.116Z,26.89
2019-05-26T13:29:50.734Z,27.59
2019-05-26T13:32:19.476Z,28.42
2019-05-26T13:34:48.310Z,28.66
2019-05-26T13:37:16.952Z,27.76
2019-05-26T13:39:45.623Z,26.84
2019-05-26T13:42:14.554Z,27.21
2019-05-26T13:44:43.229Z,26.89
2019-05-26T13:47:25.361Z,26.76
2019-05-26T13:49:42.652Z,26.00
2019-05-26T13:52:13.522Z,25.58
2019-05-26T13:54:42.196Z,25.55
2019-05-26T13:57:10.906Z,25.17
2019-05-26T13:59:39.552Z,24.51
2019-05-26T14:02:08.183Z,24.13
2019-05-26T14:04:36.827Z,23.79
2019-05-26T14:07:07.521Z,23.18
2019-05-26T14:09:36.248Z,22.89
2019-05-26T14:12:05.089Z,22.92
2019-05-26T14:14:33.889Z,23.02
2019-05-26T14:17:03.997Z,23.16
2019-05-26T14:19:34.171Z,23.33
2019-05-26T14:22:02.894Z,23.64
2019-05-26T14:24:31.540Z,23.92
2019-05-26T14:27:00.185Z,24.04
2019-05-26T14:29:28.857Z,23.98
2019-05-26T14:31:57.744Z,23.73
2019-05-26T14:34:26.418Z,23.69
2019-05-26T14:36:57.493Z,23.64
2019-05-26T14:39:26.190Z,23.74
2019-05-26T14:41:54.874Z,23.73
2019-05-26T14:44:23.791Z,23.69
2019-05-26T14:46:52.716Z,23.78
2019-05-26T14:49:21.454Z,24.06
2019-05-26T14:51:50.092Z,24.23
2019-05-26T14:54:18.812Z,24.30
2019-05-26T14:56:49.567Z,24.52
2019-05-26T14:59:18.220Z,24.52
2019-05-26T15:01:46.869Z,24.74
2019-05-26T15:04:16.276Z,24.58
2019-05-26T15:06:45.081Z,24.45
2019-05-26T15:09:24.698Z,24.21
2019-05-26T15:11:44.394Z,24.33
2019-05-26T15:14:13.126Z,24.43
2019-05-26T15:16:42.078Z,24.44
2019-05-26T15:19:10.877Z,24.44
2019-05-26T15:21:39.557Z,24.36
2019-05-26T15:24:08.271Z,24.33
2019-05-26T15:26:37.175Z,24.26
2019-05-26T15:29:05.899Z,24.42
2019-05-26T15:31:34.571Z,24.61
2019-05-26T15:34:03.276Z,25.01
2019-05-26T15:36:31.987Z,24.98
2019-05-26T15:39:00.636Z,25.29
2019-05-26T15:41:29.559Z,25.40
2019-05-26T15:43:58.519Z,25.49
2019-05-26T15:46:27.165Z,25.47
2019-05-26T15:48:55.937Z,25.41
2019-05-26T15:51:26.963Z,25.51
2019-05-26T15:53:55.901Z,25.32
2019-05-26T15:56:24.631Z,24.82
2019-05-26T15:58:53.523Z,24.17
2019-05-26T16:01:22.260Z,23.88
2019-05-26T16:03:50.895Z,23.59
2019-05-26T16:06:19.541Z,23.46
2019-05-26T16:08:48.263Z,23.19
2019-05-26T16:11:16.951Z,22.93
2019-05-26T16:13:45.627Z,22.84
2019-05-26T16:16:14.254Z,22.82
2019-05-26T16:18:42.986Z,22.95
2019-05-26T16:21:27.126Z,23.07
2019-05-26T16:23:42.259Z,23.18
2019-05-26T16:26:10.912Z,23.03
2019-05-26T16:28:39.572Z,22.80
2019-05-26T16:31:12.038Z,22.61
2019-05-26T16:33:38.667Z,22.30
2019-05-26T16:36:07.314Z,22.30
2019-05-26T16:38:36.093Z,22.20
2019-05-26T16:41:06.702Z,22.03
2019-05-26T16:43:35.514Z,21.96
2019-05-26T16:46:04.326Z,21.85
2019-05-26T16:48:35.984Z,21.76
2019-05-26T16:51:04.705Z,21.72
2019-05-26T16:53:33.331Z,21.71
2019-05-26T16:56:01.998Z,21.69
2019-05-26T16:58:30.877Z,21.77
2019-05-26T17:00:59.603Z,21.79
2019-05-26T17:03:28.270Z,21.81
2019-05-26T17:06:07.494Z,21.76
2019-05-26T17:08:27.469Z,21.96
2019-05-26T17:10:56.205Z,21.84
2019-05-26T17:13:25.104Z,21.94
2019-05-26T17:15:53.754Z,21.96
2019-05-26T17:18:22.408Z,21.98
2019-05-26T17:20:51.320Z,21.93
2019-05-26T17:23:20.131Z,21.85
2019-05-26T17:25:48.837Z,21.74
2019-05-26T17:28:17.463Z,21.69
2019-05-26T17:30:46.190Z,21.58
2019-05-26T17:33:14.813Z,21.62
2019-05-26T17:35:43.470Z,21.59
2019-05-26T17:38:12.120Z,21.59
2019-05-26T17:40:41.036Z,21.68
2019-05-26T17:43:09.961Z,21.81
2019-05-26T17:45:40.399Z,21.88
2019-05-26T17:48:09.121Z,21.90
2019-05-26T17:50:37.770Z,21.81
2019-05-26T17:53:09.508Z,21.79
2019-05-26T17:55:38.450Z,21.83
2019-05-26T17:58:07.114Z,21.92
2019-05-26T18:00:36.995Z,22.05
2019-05-26T18:03:08.133Z,22.08
2019-05-26T18:05:36.843Z,22.04
2019-05-26T18:08:05.604Z,22.05
2019-05-26T18:10:34.482Z,22.06
2019-05-26T18:13:03.138Z,21.92
2019-05-26T18:15:31.799Z,21.81
2019-05-26T18:18:02.292Z,21.78
2019-05-26T18:20:31.195Z,21.66
2019-05-26T18:23:02.927Z,21.57
2019-05-26T18:25:31.580Z,21.43
2019-05-26T18:28:00.258Z,21.49
2019-05-26T18:30:29.031Z,21.28
2019-05-26T18:32:57.710Z,21.09
2019-05-26T18:35:26.396Z,21.03
2019-05-26T18:37:55.283Z,20.90
2019-05-26T18:40:23.932Z,20.72
2019-05-26T18:42:52.592Z,20.57
2019-05-26T18:45:21.349Z,20.51
2019-05-26T18:48:02.579Z,20.39
2019-05-26T18:50:24.904Z,20.28
2019-05-26T18:52:53.558Z,20.22
2019-05-26T18:55:22.271Z,20.20
2019-05-26T18:57:51.019Z,20.09
2019-05-26T19:00:20.056Z,20.07
2019-05-26T19:02:48.986Z,20.04
2019-05-26T19:05:32.430Z,19.87
2019-05-26T19:07:48.008Z,19.99
2019-05-26T19:10:19.893Z,20.04
2019-05-26T19:12:48.795Z,20.03
2019-05-26T19:15:17.633Z,19.94
2019-05-26T19:17:47.766Z,19.91
2019-05-26T19:20:17.388Z,19.93
2019-05-26T19:22:47.365Z,19.85
2019-05-26T19:25:16.417Z,19.73
2019-05-26T19:27:45.148Z,19.67
2019-05-26T19:30:14.194Z,19.68
2019-05-26T19:32:42.987Z,19.60
2019-05-26T19:35:11.819Z,19.48
2019-05-26T19:37:40.555Z,19.41
2019-05-26T19:40:09.820Z,19.41
2019-05-26T19:42:38.845Z,19.32
2019-05-26T19:45:07.722Z,19.25
2019-05-26T19:47:38.219Z,19.19
2019-05-26T19:50:06.912Z,19.13
2019-05-26T19:52:35.569Z,19.11
2019-05-26T19:55:04.471Z,19.20
2019-05-26T19:57:33.198Z,19.31
2019-05-26T20:00:01.891Z,19.31
2019-05-26T20:02:30.588Z,19.47
2019-05-26T20:05:00.601Z,19.47
2019-05-26T20:07:29.254Z,19.48
2019-05-26T20:09:59.322Z,19.50
2019-05-26T20:12:28.007Z,19.50
2019-05-26T20:14:56.742Z,19.51
2019-05-26T20:17:26.997Z,19.50
2019-05-26T20:19:55.645Z,19.46
2019-05-26T20:22:24.708Z,19.37
2019-05-26T20:24:53.660Z,19.35
2019-05-26T20:27:28.801Z,19.39
2019-05-26T20:29:57.435Z,19.47
2019-05-26T20:32:26.167Z,19.36
2019-05-26T20:34:54.839Z,19.44
2019-05-26T20:37:23.517Z,19.44
2019-05-26T20:39:52.176Z,19.40
2019-05-26T20:42:23.040Z,19.55
2019-05-26T20:44:51.750Z,19.51
2019-05-26T20:47:20.372Z,19.51
2019-05-26T20:49:49.159Z,19.37
2019-05-26T20:52:18.123Z,19.49
2019-05-26T20:54:46.769Z,19.32
2019-05-26T20:57:15.427Z,19.26
2019-05-26T20:59:44.089Z,19.10
2019-05-26T21:02:12.976Z,19.06
2019-05-26T21:04:41.612Z,19.10
2019-05-26T21:07:10.239Z,19.01
2019-05-26T21:09:38.945Z,19.01
2019-05-26T21:12:07.608Z,19.03
2019-05-26T21:14:37.478Z,19.00
2019-05-26T21:17:06.451Z,18.94
2019-05-26T21:19:35.203Z,18.91
2019-05-26T21:22:04.008Z,18.86
2019-05-26T21:24:32.715Z,18.81
2019-05-26T21:27:01.446Z,18.68
2019-05-26T21:29:31.505Z,18.67
2019-05-26T21:32:00.163Z,18.56
2019-05-26T21:34:29.138Z,18.56
2019-05-26T21:36:58.080Z,18.66
2019-05-26T21:39:27.953Z,18.53
2019-05-26T21:41:56.631Z,18.50
2019-05-26T21:44:25.578Z,18.37
2019-05-26T21:46:54.231Z,18.26
2019-05-26T21:49:23.211Z,18.37
2019-05-26T21:51:54.766Z,18.21
2019-05-26T21:54:23.412Z,18.26
2019-05-26T21:56:52.076Z,18.24
2019-05-26T21:59:20.697Z,18.36
2019-05-26T22:01:49.684Z,18.25
2019-05-26T22:04:18.328Z,18.29
2019-05-26T22:06:47.065Z,18.18
2019-05-26T22:09:16.071Z,18.01
2019-05-26T22:11:44.728Z,18.11
2019-05-26T22:14:14.635Z,18.17
2019-05-26T22:16:43.461Z,18.05
2019-05-26T22:19:12.135Z,18.03
2019-05-26T22:21:40.791Z,18.03
2019-05-26T22:24:09.430Z,17.98
2019-05-26T22:26:39.120Z,17.87
2019-05-26T22:29:07.764Z,17.92
2019-05-26T22:31:37.331Z,17.71
2019-05-26T22:34:05.954Z,17.57
2019-05-26T22:36:34.725Z,17.60
2019-05-26T22:39:04.128Z,17.54
2019-05-26T22:41:32.730Z,17.61
2019-05-26T22:44:01.351Z,17.69
2019-05-26T22:46:30.022Z,17.73
2019-05-26T22:48:58.693Z,17.72
2019-05-26T22:51:28.582Z,17.63
2019-05-26T22:53:57.283Z,17.58
2019-05-26T22:56:25.899Z,17.63
2019-05-26T22:58:54.573Z,17.67
2019-05-26T23:01:23.480Z,17.69
2019-05-26T23:03:52.503Z,17.70
2019-05-26T23:06:21.156Z,17.70
2019-05-26T23:08:49.810Z,17.64
2019-05-26T23:11:18.534Z,17.56
2019-05-26T23:13:50.090Z,17.57
2019-05-26T23:16:18.891Z,17.60
2019-05-26T23:18:47.807Z,17.55
2019-05-26T23:21:16.445Z,17.49
2019-05-26T23:23:45.076Z,17.46
2019-05-26T23:26:13.780Z,17.48
2019-05-26T23:28:43.979Z,17.41
2019-05-26T23:31:12.626Z,17.40
2019-05-26T23:33:41.323Z,17.35
2019-05-26T23:36:11.062Z,17.41
2019-05-26T23:38:41.007Z,17.39
2019-05-26T23:41:09.903Z,17.27
2019-05-26T23:43:38.611Z,16.73
2019-05-26T23:46:07.255Z,16.32
2019-05-26T23:48:35.875Z,16.06
2019-05-26T23:51:04.563Z,15.94
2019-05-26T23:53:33.506Z,15.58
2019-05-26T23:56:02.439Z,15.28
2019-05-26T23:58:31.167Z,15.24
